Watseka, Illinois
Current Conditions -  °F | °C
As of 7:15 PM on Tuesday 27 Jan 2015 (Local Time) from KIKK Reporting Station
Clear Clear  
Wind Chill: 24°   Ceiling: Unl
Heat Index: 24°   Visibility: 10mi
Dew Point: 19°   Wind: 3mph
Humidity: 82%   Direction: 30°NNE
Pressure: 30.26"   Gusts: NA
Location:  40.78°N, 87.74°W
Report Text: KIKK 280115Z AUTO 03003KT 10SM CLR M05/M07 A3026 RMK AO2 T10461072
Loading
Personal Weather Stations






























Interactive Weather Map New forecast layout! Learn more

10-Day Weather Forecast

Advertisements
Track Severe Weather on mobile